sensor_id;sensor_type;location;lat;lon;timestamp;P1;durP1;ratioP1;P2;durP2;ratioP2
39266;SDS011;24967;51.154;13.812;2023-02-28T00:01:20;8.60;;;5.28;;
39266;SDS011;24967;51.154;13.812;2023-02-28T00:03:48;8.27;;;5.72;;
39266;SDS011;24967;51.154;13.812;2023-02-28T00:06:16;8.40;;;5.65;;
39266;SDS011;24967;51.154;13.812;2023-02-28T00:08:43;9.73;;;5.68;;
39266;SDS011;24967;51.154;13.812;2023-02-28T00:11:13;9.65;;;6.80;;
39266;SDS011;24967;51.154;13.812;2023-02-28T00:13:41;8.68;;;5.72;;
39266;SDS011;24967;51.154;13.812;2023-02-28T00:16:13;8.55;;;6.35;;
39266;SDS011;24967;51.154;13.812;2023-02-28T00:18:41;9.82;;;5.88;;
39266;SDS011;24967;51.154;13.812;2023-02-28T00:21:09;8.77;;;5.40;;
39266;SDS011;24967;51.154;13.812;2023-02-28T00:23:37;8.63;;;6.07;;
39266;SDS011;24967;51.154;13.812;2023-02-28T00:26:04;9.23;;;5.72;;
39266;SDS011;24967;51.154;13.812;2023-02-28T00:28:34;8.88;;;4.75;;
39266;SDS011;24967;51.154;13.812;2023-02-28T00:31:01;10.55;;;5.15;;
39266;SDS011;24967;51.154;13.812;2023-02-28T00:33:30;10.30;;;5.72;;
39266;SDS011;24967;51.154;13.812;2023-02-28T00:36:01;9.10;;;4.90;;
39266;SDS011;24967;51.154;13.812;2023-02-28T00:38:30;7.70;;;4.93;;
39266;SDS011;24967;51.154;13.812;2023-02-28T00:40:57;9.07;;;5.03;;
39266;SDS011;24967;51.154;13.812;2023-02-28T00:43:29;7.65;;;5.18;;
39266;SDS011;24967;51.154;13.812;2023-02-28T00:45:59;9.02;;;5.20;;
39266;SDS011;24967;51.154;13.812;2023-02-28T00:48:26;6.78;;;4.63;;
39266;SDS011;24967;51.154;13.812;2023-02-28T00:50:53;7.80;;;5.10;;
39266;SDS011;24967;51.154;13.812;2023-02-28T00:53:20;7.60;;;4.90;;
39266;SDS011;24967;51.154;13.812;2023-02-28T00:55:47;7.28;;;4.63;;
39266;SDS011;24967;51.154;13.812;2023-02-28T00:58:13;8.30;;;5.55;;
39266;SDS011;24967;51.154;13.812;2023-02-28T01:00:40;8.23;;;4.70;;
39266;SDS011;24967;51.154;13.812;2023-02-28T01:03:08;9.70;;;5.07;;
39266;SDS011;24967;51.154;13.812;2023-02-28T01:05:34;10.00;;;4.80;;
39266;SDS011;24967;51.154;13.812;2023-02-28T01:08:00;7.38;;;4.57;;
39266;SDS011;24967;51.154;13.812;2023-02-28T01:10:27;6.95;;;5.07;;
39266;SDS011;24967;51.154;13.812;2023-02-28T01:12:56;6.47;;;4.38;;
39266;SDS011;24967;51.154;13.812;2023-02-28T01:15:22;7.22;;;4.43;;
39266;SDS011;24967;51.154;13.812;2023-02-28T01:17:49;5.57;;;4.38;;
39266;SDS011;24967;51.154;13.812;2023-02-28T01:20:17;8.60;;;4.30;;
39266;SDS011;24967;51.154;13.812;2023-02-28T01:22:44;7.47;;;4.35;;
39266;SDS011;24967;51.154;13.812;2023-02-28T01:25:10;5.38;;;4.47;;
39266;SDS011;24967;51.154;13.812;2023-02-28T01:27:37;9.57;;;4.60;;
39266;SDS011;24967;51.154;13.812;2023-02-28T01:30:04;6.57;;;4.38;;
39266;SDS011;24967;51.154;13.812;2023-02-28T01:32:32;4.70;;;3.88;;
39266;SDS011;24967;51.154;13.812;2023-02-28T01:34:58;8.40;;;4.32;;
39266;SDS011;24967;51.154;13.812;2023-02-28T01:37:26;8.93;;;4.57;;
39266;SDS011;24967;51.154;13.812;2023-02-28T01:39:53;5.97;;;4.10;;
39266;SDS011;24967;51.154;13.812;2023-02-28T01:42:19;7.63;;;5.18;;
39266;SDS011;24967;51.154;13.812;2023-02-28T01:44:57;6.80;;;4.57;;
39266;SDS011;24967;51.154;13.812;2023-02-28T01:47:27;5.22;;;4.07;;
39266;SDS011;24967;51.154;13.812;2023-02-28T01:49:57;7.60;;;4.40;;
39266;SDS011;24967;51.154;13.812;2023-02-28T01:52:26;9.05;;;4.43;;
39266;SDS011;24967;51.154;13.812;2023-02-28T01:54:54;7.40;;;4.80;;
39266;SDS011;24967;51.154;13.812;2023-02-28T01:57:23;7.25;;;4.75;;
39266;SDS011;24967;51.154;13.812;2023-02-28T01:59:54;7.25;;;4.15;;
39266;SDS011;24967;51.154;13.812;2023-02-28T02:02:25;6.22;;;4.25;;
39266;SDS011;24967;51.154;13.812;2023-02-28T02:04:54;6.90;;;4.45;;
39266;SDS011;24967;51.154;13.812;2023-02-28T02:07:27;6.03;;;4.18;;
39266;SDS011;24967;51.154;13.812;2023-02-28T02:09:59;5.32;;;3.35;;
39266;SDS011;24967;51.154;13.812;2023-02-28T02:12:30;7.95;;;5.05;;
39266;SDS011;24967;51.154;13.812;2023-02-28T02:15:07;5.72;;;4.60;;
39266;SDS011;24967;51.154;13.812;2023-02-28T02:17:39;8.23;;;5.22;;
39266;SDS011;24967;51.154;13.812;2023-02-28T02:20:24;8.10;;;4.97;;
39266;SDS011;24967;51.154;13.812;2023-02-28T02:23:25;6.90;;;4.70;;
39266;SDS011;24967;51.154;13.812;2023-02-28T02:26:15;7.88;;;5.05;;
39266;SDS011;24967;51.154;13.812;2023-02-28T02:29:21;9.13;;;4.43;;
39266;SDS011;24967;51.154;13.812;2023-02-28T02:32:09;5.72;;;4.07;;
39266;SDS011;24967;51.154;13.812;2023-02-28T02:34:49;8.82;;;4.68;;
39266;SDS011;24967;51.154;13.812;2023-02-28T02:37:27;8.38;;;4.95;;
39266;SDS011;24967;51.154;13.812;2023-02-28T02:40:04;7.15;;;5.22;;
39266;SDS011;24967;51.154;13.812;2023-02-28T02:42:39;8.02;;;4.90;;
39266;SDS011;24967;51.154;13.812;2023-02-28T02:45:11;6.35;;;4.78;;
39266;SDS011;24967;51.154;13.812;2023-02-28T02:47:42;8.38;;;4.72;;
39266;SDS011;24967;51.154;13.812;2023-02-28T02:50:13;5.55;;;4.38;;
39266;SDS011;24967;51.154;13.812;2023-02-28T02:52:46;9.38;;;4.35;;
39266;SDS011;24967;51.154;13.812;2023-02-28T02:55:17;9.85;;;5.35;;
39266;SDS011;24967;51.154;13.812;2023-02-28T02:57:46;7.28;;;4.65;;
39266;SDS011;24967;51.154;13.812;2023-02-28T03:00:17;8.20;;;5.10;;
39266;SDS011;24967;51.154;13.812;2023-02-28T03:02:49;6.55;;;4.57;;
39266;SDS011;24967;51.154;13.812;2023-02-28T03:05:20;8.07;;;5.35;;
39266;SDS011;24967;51.154;13.812;2023-02-28T03:07:49;10.13;;;5.07;;
39266;SDS011;24967;51.154;13.812;2023-02-28T03:10:26;11.73;;;5.50;;
39266;SDS011;24967;51.154;13.812;2023-02-28T03:13:00;9.02;;;5.55;;
39266;SDS011;24967;51.154;13.812;2023-02-28T03:15:50;7.63;;;5.22;;
39266;SDS011;24967;51.154;13.812;2023-02-28T03:18:24;7.15;;;5.00;;
39266;SDS011;24967;51.154;13.812;2023-02-28T03:21:01;8.50;;;5.63;;
39266;SDS011;24967;51.154;13.812;2023-02-28T03:23:37;8.63;;;5.35;;
39266;SDS011;24967;51.154;13.812;2023-02-28T03:26:12;8.75;;;5.15;;
39266;SDS011;24967;51.154;13.812;2023-02-28T03:28:43;8.73;;;5.30;;
39266;SDS011;24967;51.154;13.812;2023-02-28T03:31:18;10.68;;;5.03;;
39266;SDS011;24967;51.154;13.812;2023-02-28T03:33:49;8.05;;;5.47;;
39266;SDS011;24967;51.154;13.812;2023-02-28T03:36:22;7.85;;;5.20;;
39266;SDS011;24967;51.154;13.812;2023-02-28T03:38:54;6.47;;;5.20;;
39266;SDS011;24967;51.154;13.812;2023-02-28T03:41:25;9.32;;;4.32;;
39266;SDS011;24967;51.154;13.812;2023-02-28T03:43:58;9.95;;;5.15;;
39266;SDS011;24967;51.154;13.812;2023-02-28T03:46:31;8.95;;;5.63;;
39266;SDS011;24967;51.154;13.812;2023-02-28T03:49:02;11.02;;;5.50;;
39266;SDS011;24967;51.154;13.812;2023-02-28T03:51:36;10.93;;;5.30;;
39266;SDS011;24967;51.154;13.812;2023-02-28T03:56:37;10.05;;;4.93;;
39266;SDS011;24967;51.154;13.812;2023-02-28T03:59:08;7.97;;;4.95;;
39266;SDS011;24967;51.154;13.812;2023-02-28T04:01:40;6.90;;;5.07;;
39266;SDS011;24967;51.154;13.812;2023-02-28T04:04:08;7.20;;;4.65;;
39266;SDS011;24967;51.154;13.812;2023-02-28T04:06:37;7.55;;;4.75;;
39266;SDS011;24967;51.154;13.812;2023-02-28T04:09:05;8.70;;;5.65;;
39266;SDS011;24967;51.154;13.812;2023-02-28T04:11:34;11.45;;;5.60;;
39266;SDS011;24967;51.154;13.812;2023-02-28T04:14:03;6.93;;;5.03;;
39266;SDS011;24967;51.154;13.812;2023-02-28T04:16:30;11.68;;;6.05;;
39266;SDS011;24967;51.154;13.812;2023-02-28T04:18:58;8.50;;;5.63;;
39266;SDS011;24967;51.154;13.812;2023-02-28T04:21:28;7.25;;;4.95;;
39266;SDS011;24967;51.154;13.812;2023-02-28T04:23:55;9.30;;;5.10;;
39266;SDS011;24967;51.154;13.812;2023-02-28T04:26:25;10.13;;;5.65;;
39266;SDS011;24967;51.154;13.812;2023-02-28T04:28:54;10.13;;;5.32;;
39266;SDS011;24967;51.154;13.812;2023-02-28T04:31:21;8.05;;;5.40;;
39266;SDS011;24967;51.154;13.812;2023-02-28T04:33:47;6.18;;;4.75;;
39266;SDS011;24967;51.154;13.812;2023-02-28T04:36:14;9.13;;;5.50;;
39266;SDS011;24967;51.154;13.812;2023-02-28T04:38:42;8.95;;;5.35;;
39266;SDS011;24967;51.154;13.812;2023-02-28T04:41:11;8.50;;;5.55;;
39266;SDS011;24967;51.154;13.812;2023-02-28T04:43:38;13.43;;;6.15;;
39266;SDS011;24967;51.154;13.812;2023-02-28T04:46:05;10.68;;;5.95;;
39266;SDS011;24967;51.154;13.812;2023-02-28T04:48:32;13.23;;;7.28;;
39266;SDS011;24967;51.154;13.812;2023-02-28T04:51:00;11.05;;;6.28;;
39266;SDS011;24967;51.154;13.812;2023-02-28T04:53:27;13.18;;;6.60;;
39266;SDS011;24967;51.154;13.812;2023-02-28T04:55:54;15.65;;;6.95;;
39266;SDS011;24967;51.154;13.812;2023-02-28T04:58:22;11.40;;;6.55;;
39266;SDS011;24967;51.154;13.812;2023-02-28T05:00:49;10.80;;;6.10;;
39266;SDS011;24967;51.154;13.812;2023-02-28T05:03:15;10.18;;;6.78;;
39266;SDS011;24967;51.154;13.812;2023-02-28T05:05:41;10.90;;;5.97;;
39266;SDS011;24967;51.154;13.812;2023-02-28T05:08:08;10.73;;;6.55;;
39266;SDS011;24967;51.154;13.812;2023-02-28T05:10:35;8.38;;;6.18;;
39266;SDS011;24967;51.154;13.812;2023-02-28T05:13:01;12.55;;;6.60;;
39266;SDS011;24967;51.154;13.812;2023-02-28T05:15:29;10.40;;;6.28;;
39266;SDS011;24967;51.154;13.812;2023-02-28T05:17:56;11.65;;;6.40;;
39266;SDS011;24967;51.154;13.812;2023-02-28T05:20:22;10.13;;;5.95;;
39266;SDS011;24967;51.154;13.812;2023-02-28T05:22:49;10.70;;;6.10;;
39266;SDS011;24967;51.154;13.812;2023-02-28T05:25:17;12.85;;;6.30;;
39266;SDS011;24967;51.154;13.812;2023-02-28T05:27:46;8.75;;;5.70;;
39266;SDS011;24967;51.154;13.812;2023-02-28T05:30:12;9.60;;;5.93;;
39266;SDS011;24967;51.154;13.812;2023-02-28T05:32:41;9.93;;;5.70;;
39266;SDS011;24967;51.154;13.812;2023-02-28T05:35:09;11.48;;;6.20;;
39266;SDS011;24967;51.154;13.812;2023-02-28T05:37:36;12.80;;;7.00;;
39266;SDS011;24967;51.154;13.812;2023-02-28T05:40:03;10.57;;;6.53;;
39266;SDS011;24967;51.154;13.812;2023-02-28T05:42:35;12.45;;;7.15;;
39266;SDS011;24967;51.154;13.812;2023-02-28T05:45:02;9.63;;;5.93;;
39266;SDS011;24967;51.154;13.812;2023-02-28T05:47:28;10.45;;;6.47;;
39266;SDS011;24967;51.154;13.812;2023-02-28T05:49:56;12.25;;;6.72;;
39266;SDS011;24967;51.154;13.812;2023-02-28T05:52:22;11.55;;;7.28;;
39266;SDS011;24967;51.154;13.812;2023-02-28T05:54:49;11.10;;;6.93;;
39266;SDS011;24967;51.154;13.812;2023-02-28T05:57:15;10.93;;;6.93;;
39266;SDS011;24967;51.154;13.812;2023-02-28T05:59:42;13.15;;;6.78;;
39266;SDS011;24967;51.154;13.812;2023-02-28T06:02:09;12.18;;;7.38;;
39266;SDS011;24967;51.154;13.812;2023-02-28T06:04:38;10.50;;;6.40;;
39266;SDS011;24967;51.154;13.812;2023-02-28T06:07:07;9.68;;;6.40;;
39266;SDS011;24967;51.154;13.812;2023-02-28T06:09:33;10.02;;;6.38;;
39266;SDS011;24967;51.154;13.812;2023-02-28T06:12:00;11.38;;;6.97;;
39266;SDS011;24967;51.154;13.812;2023-02-28T06:14:30;13.10;;;6.90;;
39266;SDS011;24967;51.154;13.812;2023-02-28T06:16:58;11.35;;;6.80;;
39266;SDS011;24967;51.154;13.812;2023-02-28T06:19:25;13.02;;;7.82;;
39266;SDS011;24967;51.154;13.812;2023-02-28T06:21:52;12.32;;;7.50;;
39266;SDS011;24967;51.154;13.812;2023-02-28T06:24:21;14.35;;;7.90;;
39266;SDS011;24967;51.154;13.812;2023-02-28T06:26:48;12.57;;;7.90;;
39266;SDS011;24967;51.154;13.812;2023-02-28T06:29:15;18.77;;;9.13;;
39266;SDS011;24967;51.154;13.812;2023-02-28T06:31:43;14.77;;;8.82;;
39266;SDS011;24967;51.154;13.812;2023-02-28T06:34:10;13.07;;;7.90;;
39266;SDS011;24967;51.154;13.812;2023-02-28T06:36:37;13.43;;;7.93;;
39266;SDS011;24967;51.154;13.812;2023-02-28T06:39:04;10.88;;;6.88;;
39266;SDS011;24967;51.154;13.812;2023-02-28T06:41:32;10.48;;;6.13;;
39266;SDS011;24967;51.154;13.812;2023-02-28T06:44:03;12.68;;;6.80;;
39266;SDS011;24967;51.154;13.812;2023-02-28T06:46:30;11.23;;;6.80;;
39266;SDS011;24967;51.154;13.812;2023-02-28T06:48:57;10.95;;;7.10;;
39266;SDS011;24967;51.154;13.812;2023-02-28T06:51:24;13.38;;;7.40;;
39266;SDS011;24967;51.154;13.812;2023-02-28T06:53:52;15.40;;;7.75;;
39266;SDS011;24967;51.154;13.812;2023-02-28T06:56:18;14.52;;;8.27;;
39266;SDS011;24967;51.154;13.812;2023-02-28T06:58:47;12.82;;;7.97;;
39266;SDS011;24967;51.154;13.812;2023-02-28T07:01:14;15.77;;;8.07;;
39266;SDS011;24967;51.154;13.812;2023-02-28T07:03:41;13.95;;;8.55;;
39266;SDS011;24967;51.154;13.812;2023-02-28T07:06:07;14.40;;;8.70;;
39266;SDS011;24967;51.154;13.812;2023-02-28T07:08:34;18.05;;;8.85;;
39266;SDS011;24967;51.154;13.812;2023-02-28T07:11:01;14.02;;;8.30;;
39266;SDS011;24967;51.154;13.812;2023-02-28T07:13:29;15.48;;;8.77;;
39266;SDS011;24967;51.154;13.812;2023-02-28T07:15:58;20.58;;;9.45;;
39266;SDS011;24967;51.154;13.812;2023-02-28T07:18:27;18.63;;;8.80;;
39266;SDS011;24967;51.154;13.812;2023-02-28T07:20:53;15.80;;;9.50;;
39266;SDS011;24967;51.154;13.812;2023-02-28T07:23:20;17.20;;;9.63;;
39266;SDS011;24967;51.154;13.812;2023-02-28T07:25:48;17.08;;;8.57;;
39266;SDS011;24967;51.154;13.812;2023-02-28T07:28:18;14.55;;;9.45;;
39266;SDS011;24967;51.154;13.812;2023-02-28T07:30:44;20.95;;;10.10;;
39266;SDS011;24967;51.154;13.812;2023-02-28T07:33:12;20.20;;;10.15;;
39266;SDS011;24967;51.154;13.812;2023-02-28T07:35:41;18.65;;;10.25;;
39266;SDS011;24967;51.154;13.812;2023-02-28T07:38:07;23.15;;;10.35;;
39266;SDS011;24967;51.154;13.812;2023-02-28T07:40:34;15.55;;;9.88;;
39266;SDS011;24967;51.154;13.812;2023-02-28T07:43:03;20.25;;;10.23;;
39266;SDS011;24967;51.154;13.812;2023-02-28T07:45:30;19.20;;;10.45;;
39266;SDS011;24967;51.154;13.812;2023-02-28T07:47:59;16.13;;;9.50;;
39266;SDS011;24967;51.154;13.812;2023-02-28T07:50:27;15.88;;;9.23;;
39266;SDS011;24967;51.154;13.812;2023-02-28T07:52:55;17.33;;;9.95;;
39266;SDS011;24967;51.154;13.812;2023-02-28T07:55:25;18.00;;;9.75;;
39266;SDS011;24967;51.154;13.812;2023-02-28T07:57:53;15.73;;;9.57;;
39266;SDS011;24967;51.154;13.812;2023-02-28T08:00:20;18.70;;;9.73;;
39266;SDS011;24967;51.154;13.812;2023-02-28T08:02:50;19.75;;;10.18;;
39266;SDS011;24967;51.154;13.812;2023-02-28T08:05:16;20.65;;;10.55;;
39266;SDS011;24967;51.154;13.812;2023-02-28T08:07:48;19.13;;;10.00;;
39266;SDS011;24967;51.154;13.812;2023-02-28T08:10:15;18.73;;;9.40;;
39266;SDS011;24967;51.154;13.812;2023-02-28T08:12:42;16.65;;;9.55;;
39266;SDS011;24967;51.154;13.812;2023-02-28T08:15:11;18.35;;;9.38;;
39266;SDS011;24967;51.154;13.812;2023-02-28T08:17:38;18.63;;;8.80;;
39266;SDS011;24967;51.154;13.812;2023-02-28T08:20:07;16.52;;;8.95;;
39266;SDS011;24967;51.154;13.812;2023-02-28T08:22:48;17.85;;;9.75;;
39266;SDS011;24967;51.154;13.812;2023-02-28T08:25:15;18.50;;;10.05;;
39266;SDS011;24967;51.154;13.812;2023-02-28T08:27:41;13.68;;;8.90;;
39266;SDS011;24967;51.154;13.812;2023-02-28T08:30:09;17.65;;;9.60;;
39266;SDS011;24967;51.154;13.812;2023-02-28T08:32:36;16.70;;;9.20;;
39266;SDS011;24967;51.154;13.812;2023-02-28T08:35:04;16.10;;;9.50;;
39266;SDS011;24967;51.154;13.812;2023-02-28T08:37:31;17.33;;;9.15;;
39266;SDS011;24967;51.154;13.812;2023-02-28T08:39:59;18.50;;;9.93;;
39266;SDS011;24967;51.154;13.812;2023-02-28T08:42:25;13.63;;;8.77;;
39266;SDS011;24967;51.154;13.812;2023-02-28T08:44:52;19.83;;;9.77;;
39266;SDS011;24967;51.154;13.812;2023-02-28T08:47:18;15.35;;;8.25;;
39266;SDS011;24967;51.154;13.812;2023-02-28T08:49:45;14.52;;;8.75;;
39266;SDS011;24967;51.154;13.812;2023-02-28T08:52:11;14.43;;;8.50;;
39266;SDS011;24967;51.154;13.812;2023-02-28T08:54:38;18.98;;;9.25;;
39266;SDS011;24967;51.154;13.812;2023-02-28T08:57:05;15.90;;;8.60;;
39266;SDS011;24967;51.154;13.812;2023-02-28T08:59:32;13.60;;;8.10;;
39266;SDS011;24967;51.154;13.812;2023-02-28T09:01:59;15.18;;;8.70;;
39266;SDS011;24967;51.154;13.812;2023-02-28T09:04:28;13.98;;;8.27;;
39266;SDS011;24967;51.154;13.812;2023-02-28T09:06:55;20.45;;;8.32;;
39266;SDS011;24967;51.154;13.812;2023-02-28T09:09:24;14.50;;;7.70;;
39266;SDS011;24967;51.154;13.812;2023-02-28T09:11:50;15.23;;;7.75;;
39266;SDS011;24967;51.154;13.812;2023-02-28T09:14:22;16.80;;;7.88;;
39266;SDS011;24967;51.154;13.812;2023-02-28T09:16:48;17.02;;;8.02;;
39266;SDS011;24967;51.154;13.812;2023-02-28T09:19:15;15.27;;;8.13;;
39266;SDS011;24967;51.154;13.812;2023-02-28T09:21:44;12.35;;;7.68;;
39266;SDS011;24967;51.154;13.812;2023-02-28T09:24:11;11.48;;;6.90;;
39266;SDS011;24967;51.154;13.812;2023-02-28T09:26:39;10.75;;;6.03;;
39266;SDS011;24967;51.154;13.812;2023-02-28T09:29:07;13.13;;;5.90;;
39266;SDS011;24967;51.154;13.812;2023-02-28T09:31:35;9.93;;;5.90;;
39266;SDS011;24967;51.154;13.812;2023-02-28T09:34:04;10.88;;;5.70;;
39266;SDS011;24967;51.154;13.812;2023-02-28T09:36:30;12.65;;;6.28;;
39266;SDS011;24967;51.154;13.812;2023-02-28T09:38:58;14.98;;;6.55;;
39266;SDS011;24967;51.154;13.812;2023-02-28T09:41:25;11.15;;;6.55;;
39266;SDS011;24967;51.154;13.812;2023-02-28T09:43:55;14.30;;;6.90;;
39266;SDS011;24967;51.154;13.812;2023-02-28T09:46:27;8.90;;;5.97;;
39266;SDS011;24967;51.154;13.812;2023-02-28T09:49:00;17.20;;;6.88;;
39266;SDS011;24967;51.154;13.812;2023-02-28T09:51:33;12.85;;;6.90;;
39266;SDS011;24967;51.154;13.812;2023-02-28T09:54:09;10.75;;;6.60;;
39266;SDS011;24967;51.154;13.812;2023-02-28T09:56:43;12.05;;;6.93;;
39266;SDS011;24967;51.154;13.812;2023-02-28T09:59:15;10.77;;;6.85;;
39266;SDS011;24967;51.154;13.812;2023-02-28T10:01:53;11.35;;;7.50;;
39266;SDS011;24967;51.154;13.812;2023-02-28T10:04:35;12.93;;;7.13;;
39266;SDS011;24967;51.154;13.812;2023-02-28T10:07:11;10.35;;;6.75;;
39266;SDS011;24967;51.154;13.812;2023-02-28T10:09:49;12.48;;;6.65;;
39266;SDS011;24967;51.154;13.812;2023-02-28T10:12:19;9.73;;;5.93;;
39266;SDS011;24967;51.154;13.812;2023-02-28T10:14:46;10.00;;;6.70;;
39266;SDS011;24967;51.154;13.812;2023-02-28T10:17:17;12.82;;;7.07;;
39266;SDS011;24967;51.154;13.812;2023-02-28T10:19:51;8.98;;;5.65;;
39266;SDS011;24967;51.154;13.812;2023-02-28T10:22:25;10.95;;;7.43;;
39266;SDS011;24967;51.154;13.812;2023-02-28T10:24:58;15.52;;;6.97;;
39266;SDS011;24967;51.154;13.812;2023-02-28T10:27:28;13.98;;;7.25;;
39266;SDS011;24967;51.154;13.812;2023-02-28T10:29:58;12.27;;;7.45;;
39266;SDS011;24967;51.154;13.812;2023-02-28T10:32:25;11.48;;;7.10;;
39266;SDS011;24967;51.154;13.812;2023-02-28T10:34:57;11.45;;;6.88;;
39266;SDS011;24967;51.154;13.812;2023-02-28T10:37:25;13.50;;;7.50;;
39266;SDS011;24967;51.154;13.812;2023-02-28T10:39:52;10.93;;;7.30;;
39266;SDS011;24967;51.154;13.812;2023-02-28T10:42:19;13.23;;;8.23;;
39266;SDS011;24967;51.154;13.812;2023-02-28T10:45:04;11.48;;;8.15;;
39266;SDS011;24967;51.154;13.812;2023-02-28T10:47:33;13.57;;;7.88;;
39266;SDS011;24967;51.154;13.812;2023-02-28T10:50:09;12.95;;;7.55;;
39266;SDS011;24967;51.154;13.812;2023-02-28T10:52:53;13.38;;;8.43;;
39266;SDS011;24967;51.154;13.812;2023-02-28T10:55:22;12.75;;;8.50;;
39266;SDS011;24967;51.154;13.812;2023-02-28T10:57:50;12.85;;;8.63;;
39266;SDS011;24967;51.154;13.812;2023-02-28T11:00:17;15.23;;;8.45;;
39266;SDS011;24967;51.154;13.812;2023-02-28T11:02:46;15.35;;;9.18;;
39266;SDS011;24967;51.154;13.812;2023-02-28T11:05:28;13.20;;;8.65;;
39266;SDS011;24967;51.154;13.812;2023-02-28T11:07:57;15.05;;;8.35;;
39266;SDS011;24967;51.154;13.812;2023-02-28T11:10:30;12.38;;;8.55;;
39266;SDS011;24967;51.154;13.812;2023-02-28T11:12:59;14.00;;;8.05;;
39266;SDS011;24967;51.154;13.812;2023-02-28T11:15:28;16.00;;;9.00;;
39266;SDS011;24967;51.154;13.812;2023-02-28T11:17:56;14.80;;;8.63;;
39266;SDS011;24967;51.154;13.812;2023-02-28T11:20:25;12.13;;;8.63;;
39266;SDS011;24967;51.154;13.812;2023-02-28T11:22:56;12.68;;;8.52;;
39266;SDS011;24967;51.154;13.812;2023-02-28T11:25:26;17.08;;;9.70;;
39266;SDS011;24967;51.154;13.812;2023-02-28T11:27:56;16.10;;;9.10;;
39266;SDS011;24967;51.154;13.812;2023-02-28T11:30:27;20.95;;;10.55;;
39266;SDS011;24967;51.154;13.812;2023-02-28T11:32:57;13.65;;;9.50;;
39266;SDS011;24967;51.154;13.812;2023-02-28T11:35:25;20.13;;;10.80;;
39266;SDS011;24967;51.154;13.812;2023-02-28T11:37:56;17.17;;;10.38;;
39266;SDS011;24967;51.154;13.812;2023-02-28T11:40:26;15.35;;;9.90;;
39266;SDS011;24967;51.154;13.812;2023-02-28T11:43:01;14.60;;;9.57;;
39266;SDS011;24967;51.154;13.812;2023-02-28T11:45:42;17.58;;;9.60;;
39266;SDS011;24967;51.154;13.812;2023-02-28T11:48:18;14.05;;;9.65;;
39266;SDS011;24967;51.154;13.812;2023-02-28T11:50:52;15.73;;;9.43;;
39266;SDS011;24967;51.154;13.812;2023-02-28T11:53:27;14.85;;;8.60;;
39266;SDS011;24967;51.154;13.812;2023-02-28T11:56:09;12.07;;;9.10;;
39266;SDS011;24967;51.154;13.812;2023-02-28T11:58:45;14.63;;;9.15;;
39266;SDS011;24967;51.154;13.812;2023-02-28T12:01:29;20.92;;;10.77;;
39266;SDS011;24967;51.154;13.812;2023-02-28T12:04:10;12.13;;;8.50;;
39266;SDS011;24967;51.154;13.812;2023-02-28T12:06:45;17.80;;;10.10;;
39266;SDS011;24967;51.154;13.812;2023-02-28T12:12:14;16.95;;;10.05;;
39266;SDS011;24967;51.154;13.812;2023-02-28T12:17:51;14.60;;;9.10;;
39266;SDS011;24967;51.154;13.812;2023-02-28T12:20:29;14.27;;;8.35;;
39266;SDS011;24967;51.154;13.812;2023-02-28T12:23:09;13.45;;;9.40;;
39266;SDS011;24967;51.154;13.812;2023-02-28T12:25:49;12.27;;;8.77;;
39266;SDS011;24967;51.154;13.812;2023-02-28T12:28:23;12.95;;;8.80;;
39266;SDS011;24967;51.154;13.812;2023-02-28T12:30:55;14.60;;;9.13;;
39266;SDS011;24967;51.154;13.812;2023-02-28T12:33:27;16.50;;;9.18;;
39266;SDS011;24967;51.154;13.812;2023-02-28T12:35:59;12.88;;;9.20;;
39266;SDS011;24967;51.154;13.812;2023-02-28T12:38:34;18.67;;;9.27;;
39266;SDS011;24967;51.154;13.812;2023-02-28T12:41:06;17.13;;;9.65;;
39266;SDS011;24967;51.154;13.812;2023-02-28T12:43:40;13.30;;;9.38;;
39266;SDS011;24967;51.154;13.812;2023-02-28T12:46:11;14.88;;;9.40;;
39266;SDS011;24967;51.154;13.812;2023-02-28T12:48:42;15.65;;;10.07;;
39266;SDS011;24967;51.154;13.812;2023-02-28T12:51:11;18.00;;;9.73;;
39266;SDS011;24967;51.154;13.812;2023-02-28T12:53:45;16.80;;;9.57;;
39266;SDS011;24967;51.154;13.812;2023-02-28T12:56:20;16.08;;;9.85;;
39266;SDS011;24967;51.154;13.812;2023-02-28T12:58:56;17.08;;;9.90;;
39266;SDS011;24967;51.154;13.812;2023-02-28T13:01:34;13.95;;;9.30;;
39266;SDS011;24967;51.154;13.812;2023-02-28T13:07:10;16.52;;;11.07;;
39266;SDS011;24967;51.154;13.812;2023-02-28T13:09:53;15.45;;;9.90;;
39266;SDS011;24967;51.154;13.812;2023-02-28T13:12:22;15.48;;;9.95;;
39266;SDS011;24967;51.154;13.812;2023-02-28T13:14:49;16.35;;;9.93;;
39266;SDS011;24967;51.154;13.812;2023-02-28T13:17:17;16.13;;;10.10;;
39266;SDS011;24967;51.154;13.812;2023-02-28T13:19:46;18.60;;;10.57;;
39266;SDS011;24967;51.154;13.812;2023-02-28T13:22:36;18.92;;;10.77;;
39266;SDS011;24967;51.154;13.812;2023-02-28T13:28:10;16.30;;;10.23;;
39266;SDS011;24967;51.154;13.812;2023-02-28T13:33:29;14.85;;;10.00;;
39266;SDS011;24967;51.154;13.812;2023-02-28T13:36:06;15.57;;;10.65;;
39266;SDS011;24967;51.154;13.812;2023-02-28T13:38:36;18.55;;;10.65;;
39266;SDS011;24967;51.154;13.812;2023-02-28T13:44:24;17.80;;;11.02;;
39266;SDS011;24967;51.154;13.812;2023-02-28T13:49:47;18.83;;;10.27;;
39266;SDS011;24967;51.154;13.812;2023-02-28T13:52:17;19.45;;;10.80;;
39266;SDS011;24967;51.154;13.812;2023-02-28T13:57:51;18.17;;;10.30;;
39266;SDS011;24967;51.154;13.812;2023-02-28T14:00:31;17.45;;;10.65;;
39266;SDS011;24967;51.154;13.812;2023-02-28T14:03:21;18.63;;;11.38;;
39266;SDS011;24967;51.154;13.812;2023-02-28T14:06:14;20.40;;;11.30;;
39266;SDS011;24967;51.154;13.812;2023-02-28T14:08:46;16.67;;;9.88;;
39266;SDS011;24967;51.154;13.812;2023-02-28T14:11:27;17.00;;;10.40;;
39266;SDS011;24967;51.154;13.812;2023-02-28T14:13:58;18.10;;;11.18;;
39266;SDS011;24967;51.154;13.812;2023-02-28T14:16:27;15.45;;;10.50;;
39266;SDS011;24967;51.154;13.812;2023-02-28T14:19:02;15.90;;;10.48;;
39266;SDS011;24967;51.154;13.812;2023-02-28T14:21:38;15.07;;;10.77;;
39266;SDS011;24967;51.154;13.812;2023-02-28T14:27:11;20.48;;;11.00;;
39266;SDS011;24967;51.154;13.812;2023-02-28T14:33:22;17.90;;;10.70;;
39266;SDS011;24967;51.154;13.812;2023-02-28T14:35:56;21.73;;;10.95;;
39266;SDS011;24967;51.154;13.812;2023-02-28T14:38:29;14.75;;;10.32;;
39266;SDS011;24967;51.154;13.812;2023-02-28T14:41:04;16.63;;;10.57;;
39266;SDS011;24967;51.154;13.812;2023-02-28T14:43:47;22.92;;;11.77;;
39266;SDS011;24967;51.154;13.812;2023-02-28T14:46:16;19.50;;;12.60;;
39266;SDS011;24967;51.154;13.812;2023-02-28T14:48:46;15.68;;;10.82;;
39266;SDS011;24967;51.154;13.812;2023-02-28T14:51:17;39.83;;;13.27;;
39266;SDS011;24967;51.154;13.812;2023-02-28T14:53:46;43.55;;;15.38;;
39266;SDS011;24967;51.154;13.812;2023-02-28T14:56:19;23.90;;;12.63;;
39266;SDS011;24967;51.154;13.812;2023-02-28T14:58:51;24.33;;;14.85;;
39266;SDS011;24967;51.154;13.812;2023-02-28T15:01:19;30.85;;;16.95;;
39266;SDS011;24967;51.154;13.812;2023-02-28T15:03:48;30.88;;;18.83;;
39266;SDS011;24967;51.154;13.812;2023-02-28T15:06:24;23.02;;;13.88;;
39266;SDS011;24967;51.154;13.812;2023-02-28T15:11:36;21.50;;;11.80;;
39266;SDS011;24967;51.154;13.812;2023-02-28T15:14:04;20.58;;;11.73;;
39266;SDS011;24967;51.154;13.812;2023-02-28T15:16:31;22.95;;;11.73;;
39266;SDS011;24967;51.154;13.812;2023-02-28T15:19:02;17.35;;;11.32;;